createdAt,value
2016-04-11T10:07:43.597Z,951.75
2016-04-11T10:08:43.802Z,951.76
2016-04-11T10:09:44.493Z,951.75
2016-04-11T10:10:44.995Z,951.72
2016-04-11T10:11:46.514Z,951.73
2016-04-11T10:12:43.406Z,951.71
2016-04-11T10:13:43.691Z,951.76
2016-04-11T10:14:44.630Z,951.74
2016-04-11T10:15:43.461Z,951.72
2016-04-11T10:16:44.324Z,951.71
2016-04-11T10:17:43.498Z,951.7
2016-04-11T10:18:44.001Z,951.68
2016-04-11T21:32:39.135Z,950.35
2016-04-11T21:33:38.169Z,950.38
2016-04-11T21:34:38.389Z,950.41
2016-04-11T21:35:37.970Z,950.38
2016-04-11T21:37:40.273Z,950.38
2016-04-11T21:38:38.525Z,950.33
2016-04-11T21:39:37.919Z,950.28
2016-04-11T21:40:37.905Z,950.27
2016-04-11T21:41:40.472Z,950.27
2016-04-11T21:42:37.864Z,950.27
2016-04-11T21:43:40.851Z,950.29
2016-04-11T21:44:38.119Z,950.26
2016-04-11T21:45:39.873Z,950.27
2016-04-11T21:46:38.079Z,950.32
2016-04-11T21:47:37.862Z,950.29
2016-04-11T21:48:38.662Z,950.35
2016-04-11T21:49:40.461Z,950.3
2016-04-11T21:50:37.996Z,950.36
2016-04-11T21:51:37.810Z,950.36
2016-04-11T21:52:39.063Z,950.34
2016-04-11T21:53:39.628Z,950.38
2016-04-11T21:54:39.897Z,950.38
2016-04-11T21:55:40.040Z,950.34
2016-04-11T21:56:40.105Z,950.34
2016-04-11T21:57:40.358Z,950.37
2016-04-11T21:58:39.361Z,950.36
2016-04-11T21:59:39.942Z,950.36
2016-04-11T22:00:40.350Z,950.3
2016-04-11T22:01:40.259Z,950.28
2016-04-11T22:02:40.278Z,950.31
2016-04-11T22:03:40.295Z,950.27
2016-04-11T22:04:39.986Z,950.25
2016-04-11T22:05:39.958Z,950.3
2016-04-11T22:06:37.914Z,950.29
2016-04-11T22:07:37.995Z,950.3
2016-04-11T22:08:39.700Z,950.29
2016-04-11T22:09:39.750Z,950.31
2016-04-11T22:10:39.612Z,950.32
2016-04-11T22:11:39.567Z,950.3
2016-04-11T22:12:39.899Z,950.3
2016-04-11T22:13:39.979Z,950.28
2016-04-11T22:14:39.685Z,950.28
2016-04-11T22:15:39.846Z,950.27
2016-04-11T22:16:39.614Z,950.27
2016-04-11T22:17:39.543Z,950.26
2016-04-11T22:18:39.656Z,950.26
2016-04-11T22:19:39.612Z,950.18
2016-04-11T22:20:39.468Z,950.2
